createdAt,value
2019-02-27T00:00:04.504Z,1025.05
2019-02-27T00:01:02.542Z,1025.04
2019-02-27T00:02:02.519Z,1025.04
2019-02-27T00:03:02.496Z,1025.04
2019-02-27T00:04:03.077Z,1025.02
2019-02-27T00:05:02.444Z,1025.03
2019-02-27T00:06:02.421Z,1024.97
2019-02-27T00:07:02.399Z,1024.99
2019-02-27T00:08:02.381Z,1024.95
2019-02-27T00:09:02.347Z,1024.96
2019-02-27T00:10:05.846Z,1024.95
2019-02-27T00:11:02.313Z,1024.93
2019-02-27T00:12:02.284Z,1024.94
2019-02-27T00:13:02.268Z,1024.93
2019-02-27T00:14:02.224Z,1024.94
2019-02-27T00:15:04.913Z,1024.95
2019-02-27T00:16:02.178Z,1024.94
2019-02-27T00:17:02.172Z,1024.91
2019-02-27T00:18:02.128Z,1024.90
2019-02-27T00:19:02.125Z,1024.87
2019-02-27T00:20:05.091Z,1024.85
2019-02-27T00:21:02.053Z,1024.85
2019-02-27T00:22:02.030Z,1024.86
2019-02-27T00:23:02.007Z,1024.81
2019-02-27T00:24:01.979Z,1024.83
2019-02-27T00:25:03.458Z,1024.77
2019-02-27T00:26:01.939Z,1024.79
2019-02-27T00:27:01.908Z,1024.77
2019-02-27T00:28:01.887Z,1024.74
2019-02-27T00:29:01.859Z,1024.73
2019-02-27T00:30:04.903Z,1024.74
2019-02-27T00:31:02.617Z,1024.73
2019-02-27T00:32:01.784Z,1024.75
2019-02-27T00:33:01.758Z,1024.76
2019-02-27T00:34:01.735Z,1024.71
2019-02-27T00:35:06.476Z,1024.74
2019-02-27T00:36:01.687Z,1024.71
2019-02-27T00:37:01.661Z,1024.70
2019-02-27T00:38:01.683Z,1024.70
2019-02-27T00:39:01.611Z,1024.70
2019-02-27T00:40:05.431Z,1024.71
2019-02-27T00:41:01.564Z,1024.69
2019-02-27T00:42:01.541Z,1024.69
2019-02-27T00:43:01.514Z,1024.66
2019-02-27T00:44:02.024Z,1024.65
2019-02-27T00:45:01.465Z,1024.67
2019-02-27T00:46:01.443Z,1024.63
2019-02-27T00:47:01.418Z,1024.61
2019-02-27T00:48:01.391Z,1024.60
2019-02-27T00:49:01.366Z,1024.64
2019-02-27T00:50:05.736Z,1024.59
2019-02-27T00:51:01.323Z,1024.58
2019-02-27T00:52:01.295Z,1024.55
2019-02-27T00:53:01.348Z,1024.55
2019-02-27T00:54:01.244Z,1024.52
2019-02-27T00:55:04.291Z,1024.54
2019-02-27T00:56:01.196Z,1024.55
2019-02-27T00:57:01.169Z,1024.55
2019-02-27T00:58:01.145Z,1024.52
2019-02-27T00:59:01.123Z,1024.50
2019-02-27T01:00:01.098Z,1024.51
2019-02-27T01:01:01.071Z,1024.53
2019-02-27T01:02:01.045Z,1024.48
2019-02-27T01:03:01.021Z,1024.47
2019-02-27T01:04:02.433Z,1024.48
2019-02-27T01:05:00.971Z,1024.47
2019-02-27T01:06:00.946Z,1024.45
2019-02-27T01:07:00.924Z,1024.43
2019-02-27T01:08:00.897Z,1024.43
2019-02-27T01:09:00.872Z,1024.44
2019-02-27T01:10:00.850Z,1024.43
2019-02-27T01:11:00.823Z,1024.45
2019-02-27T01:12:00.797Z,1024.43
2019-02-27T01:13:00.780Z,1024.41
2019-02-27T01:14:03.926Z,1024.37
2019-02-27T01:15:00.741Z,1024.42
2019-02-27T01:16:00.705Z,1024.38
2019-02-27T01:17:00.683Z,1024.39
2019-02-27T01:18:00.649Z,1024.37
2019-02-27T01:19:02.223Z,1024.38
2019-02-27T01:20:00.605Z,1024.36
2019-02-27T01:21:00.575Z,1024.32
2019-02-27T01:22:00.549Z,1024.34
2019-02-27T01:23:00.524Z,1024.30
2019-02-27T01:24:01.453Z,1024.31
2019-02-27T01:25:00.473Z,1024.33
2019-02-27T01:26:00.454Z,1024.29
2019-02-27T01:27:04.133Z,1024.30
2019-02-27T01:28:01.642Z,1024.26
2019-02-27T01:29:00.374Z,1024.26
2019-02-27T01:30:00.412Z,1024.23
2019-02-27T01:31:00.327Z,1024.21
2019-02-27T01:32:00.300Z,1024.17
2019-02-27T01:33:03.915Z,1024.17
2019-02-27T01:34:00.252Z,1024.15
2019-02-27T01:35:00.335Z,1024.14
2019-02-27T01:36:00.204Z,1024.15
2019-02-27T01:37:00.197Z,1024.11
2019-02-27T01:38:00.150Z,1024.14
2019-02-27T01:39:00.129Z,1024.07
2019-02-27T01:40:00.272Z,1024.09
2019-02-27T01:41:00.078Z,1024.07
2019-02-27T01:42:00.051Z,1024.07
2019-02-27T01:43:00.026Z,1024.05
2019-02-27T01:44:00.006Z,1024.09
2019-02-27T01:44:59.976Z,1024.05
2019-02-27T01:45:59.950Z,1024.03
2019-02-27T01:47:02.321Z,1024.04
2019-02-27T01:47:59.905Z,1024.02
2019-02-27T01:48:59.876Z,1024.01
2019-02-27T01:49:59.850Z,1024.01
2019-02-27T01:50:59.825Z,1024.01
2019-02-27T01:52:02.113Z,1023.95
2019-02-27T01:52:59.781Z,1023.99
2019-02-27T01:53:59.750Z,1023.93
2019-02-27T01:54:59.726Z,1023.97
2019-02-27T01:55:59.702Z,1023.95
2019-02-27T01:56:59.896Z,1023.91
2019-02-27T01:57:59.658Z,1023.93
2019-02-27T01:58:59.626Z,1023.93
2019-02-27T01:59:59.603Z,1023.88
2019-02-27T02:00:59.575Z,1023.89
2019-02-27T02:02:01.075Z,1023.89
2019-02-27T02:02:59.529Z,1023.89
2019-02-27T02:03:59.501Z,1023.85
2019-02-27T02:04:59.483Z,1023.81
2019-02-27T02:05:59.869Z,1023.80
2019-02-27T02:06:59.424Z,1023.78
2019-02-27T02:07:59.407Z,1023.81
2019-02-27T02:08:59.384Z,1023.79
2019-02-27T02:09:59.349Z,1023.73
2019-02-27T02:11:01.410Z,1023.75
2019-02-27T02:11:59.301Z,1023.71
2019-02-27T02:12:59.277Z,1023.70
2019-02-27T02:13:59.248Z,1023.66
2019-02-27T02:14:59.228Z,1023.64
2019-02-27T02:16:00.909Z,1023.60
2019-02-27T02:16:59.173Z,1023.63
2019-02-27T02:17:59.148Z,1023.57
2019-02-27T02:18:59.146Z,1023.57
2019-02-27T02:19:59.102Z,1023.56
2019-02-27T02:21:01.739Z,1023.58
2019-02-27T02:21:59.048Z,1023.53
2019-02-27T02:22:59.024Z,1023.52
2019-02-27T02:23:58.998Z,1023.51
2019-02-27T02:24:59.798Z,1023.49
2019-02-27T02:26:01.065Z,1023.46
2019-02-27T02:26:58.922Z,1023.41
2019-02-27T02:27:58.898Z,1023.39
2019-02-27T02:28:58.872Z,1023.38
2019-02-27T02:29:58.847Z,1023.40
2019-02-27T02:31:04.903Z,1023.38
2019-02-27T02:31:58.807Z,1023.37
2019-02-27T02:32:58.773Z,1023.36
2019-02-27T02:34:05.184Z,1023.31
2019-02-27T02:34:58.729Z,1023.30
2019-02-27T02:35:58.699Z,1023.30
2019-02-27T02:37:02.474Z,1023.29
2019-02-27T02:37:58.645Z,1023.28
2019-02-27T02:38:58.622Z,1023.27
2019-02-27T02:39:58.600Z,1023.23
2019-02-27T02:40:58.587Z,1023.24
2019-02-27T02:41:58.547Z,1023.24
2019-02-27T02:42:59.067Z,1023.19
2019-02-27T02:43:58.502Z,1023.24
2019-02-27T02:44:58.499Z,1023.19
2019-02-27T02:45:58.443Z,1023.17
2019-02-27T02:46:58.433Z,1023.16
2019-02-27T02:47:58.394Z,1023.16
2019-02-27T02:48:58.371Z,1023.12
2019-02-27T02:49:58.345Z,1023.08
2019-02-27T02:50:58.321Z,1023.10
2019-02-27T02:51:58.303Z,1023.11
2019-02-27T02:52:58.267Z,1023.07
2019-02-27T02:54:01.731Z,1023.05
2019-02-27T02:54:58.223Z,1023.03
2019-02-27T02:55:58.192Z,1023.01
2019-02-27T02:57:00.574Z,1022.99
2019-02-27T02:57:58.142Z,1022.97
2019-02-27T02:58:58.118Z,1023.00
2019-02-27T02:59:59.909Z,1022.97
2019-02-27T03:00:58.069Z,1022.97
2019-02-27T03:01:58.039Z,1022.99
2019-02-27T03:03:00.976Z,1022.93
2019-02-27T03:03:57.988Z,1022.90
2019-02-27T03:04:57.964Z,1022.85
2019-02-27T03:05:59.798Z,1022.89
2019-02-27T03:06:57.912Z,1022.82
2019-02-27T03:07:57.895Z,1022.84
2019-02-27T03:08:57.867Z,1022.83
2019-02-27T03:09:57.834Z,1022.84
2019-02-27T03:10:57.810Z,1022.86
2019-02-27T03:11:57.787Z,1022.79
2019-02-27T03:12:57.758Z,1022.77
2019-02-27T03:13:57.736Z,1022.75
2019-02-27T03:14:57.709Z,1022.73
2019-02-27T03:16:04.235Z,1022.70
2019-02-27T03:16:57.672Z,1022.70
2019-02-27T03:17:57.632Z,1022.68
2019-02-27T03:18:57.607Z,1022.68
2019-02-27T03:19:57.581Z,1022.70
2019-02-27T03:20:57.556Z,1022.67
2019-02-27T03:22:03.111Z,1022.65
2019-02-27T03:22:57.504Z,1022.61
2019-02-27T03:23:57.481Z,1022.62
2019-02-27T03:25:03.630Z,1022.60
2019-02-27T03:25:58.150Z,1022.59
2019-02-27T03:26:57.401Z,1022.58
2019-02-27T03:27:57.376Z,1022.54
2019-02-27T03:28:57.353Z,1022.58
2019-02-27T03:29:57.332Z,1022.52
2019-02-27T03:30:57.300Z,1022.50
2019-02-27T03:32:00.444Z,1022.46
2019-02-27T03:32:57.261Z,1022.49
2019-02-27T03:34:05.604Z,1022.46
2019-02-27T03:34:57.234Z,1022.46
2019-02-27T03:35:59.907Z,1022.46
2019-02-27T03:36:57.178Z,1022.48
2019-02-27T03:37:57.123Z,1022.43
2019-02-27T03:38:59.156Z,1022.37
2019-02-27T03:39:57.075Z,1022.37
2019-02-27T03:40:57.057Z,1022.40
2019-02-27T03:41:59.413Z,1022.40
2019-02-27T03:42:57.000Z,1022.39
2019-02-27T03:43:56.972Z,1022.45
2019-02-27T03:44:57.188Z,1022.43
2019-02-27T03:45:56.923Z,1022.43
2019-02-27T03:46:56.895Z,1022.49
2019-02-27T03:47:56.867Z,1022.49
2019-02-27T03:49:03.011Z,1022.44
2019-02-27T03:49:56.818Z,1022.43
2019-02-27T03:50:56.867Z,1022.42
2019-02-27T03:52:00.357Z,1022.40
2019-02-27T03:52:56.738Z,1022.34
2019-02-27T03:53:56.711Z,1022.34
2019-02-27T03:54:58.016Z,1022.35
2019-02-27T03:55:56.661Z,1022.31
2019-02-27T03:56:56.634Z,1022.31
2019-02-27T03:57:56.613Z,1022.35
2019-02-27T03:58:56.585Z,1022.33
2019-02-27T03:59:56.559Z,1022.31
2019-02-27T04:00:56.531Z,1022.32
2019-02-27T04:01:56.507Z,1022.32
2019-02-27T04:02:56.489Z,1022.32
2019-02-27T04:03:56.478Z,1022.33
2019-02-27T04:04:56.429Z,1022.33
2019-02-27T04:05:56.426Z,1022.34
2019-02-27T04:06:57.235Z,1022.32
2019-02-27T04:07:56.352Z,1022.29
2019-02-27T04:08:56.326Z,1022.29
2019-02-27T04:09:56.534Z,1022.29
2019-02-27T04:10:56.276Z,1022.26
2019-02-27T04:11:56.249Z,1022.33
2019-02-27T04:12:56.253Z,1022.32
2019-02-27T04:14:03.077Z,1022.31
2019-02-27T04:14:56.173Z,1022.32
2019-02-27T04:15:56.147Z,1022.34
2019-02-27T04:16:56.118Z,1022.33
2019-02-27T04:17:56.095Z,1022.34
2019-02-27T04:18:56.075Z,1022.34
2019-02-27T04:19:56.049Z,1022.35
2019-02-27T04:20:56.025Z,1022.33
2019-02-27T04:22:00.516Z,1022.37
2019-02-27T04:22:55.968Z,1022.39
2019-02-27T04:23:55.949Z,1022.37
2019-02-27T04:24:56.778Z,1022.38
2019-02-27T04:25:55.890Z,1022.37
2019-02-27T04:26:56.514Z,1022.35
2019-02-27T04:27:56.342Z,1022.35
2019-02-27T04:28:55.810Z,1022.31
2019-02-27T04:29:55.788Z,1022.29
2019-02-27T04:30:55.762Z,1022.34
2019-02-27T04:31:55.734Z,1022.29
2019-02-27T04:32:55.723Z,1022.28
2019-02-27T04:33:59.556Z,1022.30
2019-02-27T04:34:55.660Z,1022.27
2019-02-27T04:35:55.630Z,1022.28
2019-02-27T04:36:55.603Z,1022.30
2019-02-27T04:37:55.577Z,1022.29
2019-02-27T04:38:55.551Z,1022.24
2019-02-27T04:39:55.526Z,1022.24
2019-02-27T04:40:55.501Z,1022.26
2019-02-27T04:41:55.473Z,1022.21
2019-02-27T04:42:56.979Z,1022.22
2019-02-27T04:43:55.423Z,1022.22
2019-02-27T04:44:55.406Z,1022.27
2019-02-27T04:45:55.377Z,1022.22
2019-02-27T04:46:55.642Z,1022.19
2019-02-27T04:47:55.323Z,1022.18
2019-02-27T04:48:55.292Z,1022.17
2019-02-27T04:49:55.267Z,1022.20
2019-02-27T04:50:55.254Z,1022.18
2019-02-27T04:51:55.217Z,1022.24
2019-02-27T04:52:57.885Z,1022.24
2019-02-27T04:53:55.184Z,1022.22
2019-02-27T04:54:55.165Z,1022.19
2019-02-27T04:55:55.132Z,1022.16
2019-02-27T04:56:57.594Z,1022.14
2019-02-27T04:57:55.061Z,1022.11
2019-02-27T04:58:55.037Z,1022.14
2019-02-27T04:59:55.014Z,1022.08
2019-02-27T05:00:58.945Z,1022.09
2019-02-27T05:01:54.960Z,1022.10
2019-02-27T05:02:54.933Z,1022.05
2019-02-27T05:03:54.915Z,1022.07
2019-02-27T05:04:54.878Z,1022.13
2019-02-27T05:05:54.862Z,1022.08
2019-02-27T05:06:54.829Z,1022.08
2019-02-27T05:07:54.955Z,1022.08
2019-02-27T05:08:54.774Z,1022.11
2019-02-27T05:09:54.751Z,1022.12
2019-02-27T05:10:54.724Z,1022.10
2019-02-27T05:11:54.697Z,1022.13
2019-02-27T05:12:54.673Z,1022.12
2019-02-27T05:13:54.866Z,1022.13
2019-02-27T05:14:54.627Z,1022.12
2019-02-27T05:15:54.596Z,1022.10
2019-02-27T05:16:54.571Z,1022.13
2019-02-27T05:17:55.632Z,1022.11
2019-02-27T05:18:54.517Z,1022.08
2019-02-27T05:19:54.504Z,1022.06
2019-02-27T05:20:54.475Z,1022.03
2019-02-27T05:21:54.447Z,1022.00
2019-02-27T05:22:54.425Z,1022.03
2019-02-27T05:23:54.392Z,1022.00
2019-02-27T05:24:54.366Z,1021.99
2019-02-27T05:25:54.334Z,1022.00
2019-02-27T05:26:54.310Z,1022.05
2019-02-27T05:27:54.282Z,1022.04
2019-02-27T05:28:54.259Z,1022.06
2019-02-27T05:29:54.243Z,1022.08
2019-02-27T05:30:54.222Z,1022.03
2019-02-27T05:31:54.179Z,1022.06
2019-02-27T05:32:54.154Z,1022.04
2019-02-27T05:33:54.126Z,1022.03
2019-02-27T05:34:54.110Z,1022.06
2019-02-27T05:35:57.007Z,1022.07
2019-02-27T05:36:54.048Z,1022.06
2019-02-27T05:37:54.023Z,1022.05
2019-02-27T05:38:53.996Z,1022.05
2019-02-27T05:39:53.970Z,1022.08
2019-02-27T05:40:53.948Z,1022.11
2019-02-27T05:41:53.919Z,1022.10
2019-02-27T05:42:53.893Z,1022.12
2019-02-27T05:43:53.867Z,1022.16
2019-02-27T05:44:55.883Z,1022.17
2019-02-27T05:45:53.819Z,1022.16
2019-02-27T05:46:53.788Z,1022.13
2019-02-27T05:47:53.769Z,1022.16
2019-02-27T05:48:54.004Z,1022.16
2019-02-27T05:49:53.710Z,1022.15
2019-02-27T05:50:53.685Z,1022.17
2019-02-27T05:51:53.662Z,1022.19
2019-02-27T05:52:53.631Z,1022.13
2019-02-27T05:53:56.177Z,1022.11
2019-02-27T05:54:53.592Z,1022.09
2019-02-27T05:55:53.555Z,1022.08
2019-02-27T05:56:53.528Z,1022.06
2019-02-27T05:57:53.503Z,1022.05
2019-02-27T05:58:55.864Z,1022.06
2019-02-27T05:59:53.455Z,1022.03
2019-02-27T06:00:53.424Z,1021.98
2019-02-27T06:01:53.398Z,1021.99
2019-02-27T06:02:53.374Z,1021.94
2019-02-27T06:03:53.366Z,1021.93
2019-02-27T06:04:53.318Z,1021.92
2019-02-27T06:05:53.294Z,1021.95
2019-02-27T06:06:53.266Z,1021.88
2019-02-27T06:07:53.249Z,1021.92
2019-02-27T06:08:53.216Z,1021.90
2019-02-27T06:09:53.256Z,1021.94
2019-02-27T06:10:55.991Z,1021.90
2019-02-27T06:11:53.138Z,1021.96
2019-02-27T06:12:53.110Z,1021.99
2019-02-27T06:13:53.087Z,1021.97
2019-02-27T06:14:55.022Z,1021.96
2019-02-27T06:15:53.033Z,1021.95
2019-02-27T06:16:53.005Z,1021.97
2019-02-27T06:17:52.978Z,1021.93
2019-02-27T06:18:56.036Z,1021.92
2019-02-27T06:19:52.928Z,1021.92
2019-02-27T06:20:52.901Z,1021.91
2019-02-27T06:21:56.033Z,1021.90
2019-02-27T06:22:53.498Z,1021.86
2019-02-27T06:23:52.823Z,1021.85
2019-02-27T06:24:52.797Z,1021.83
2019-02-27T06:25:59.047Z,1021.89
2019-02-27T06:26:52.743Z,1021.89
2019-02-27T06:27:52.718Z,1021.85
2019-02-27T06:28:52.694Z,1021.85
2019-02-27T06:29:56.599Z,1021.83
2019-02-27T06:30:52.643Z,1021.82
2019-02-27T06:31:52.616Z,1021.81
2019-02-27T06:32:52.589Z,1021.81
2019-02-27T06:33:52.567Z,1021.76
2019-02-27T06:34:52.534Z,1021.78
2019-02-27T06:35:52.508Z,1021.74
2019-02-27T06:36:52.492Z,1021.73
2019-02-27T06:37:52.455Z,1021.70
2019-02-27T06:38:52.430Z,1021.69
2019-02-27T06:39:54.147Z,1021.67
2019-02-27T06:40:52.378Z,1021.67
2019-02-27T06:41:52.352Z,1021.67
2019-02-27T06:42:53.850Z,1021.68
2019-02-27T06:43:52.299Z,1021.69
2019-02-27T06:44:52.272Z,1021.68
2019-02-27T06:45:54.186Z,1021.72
2019-02-27T06:46:53.750Z,1021.71
2019-02-27T06:47:52.194Z,1021.76
2019-02-27T06:48:52.168Z,1021.78
2019-02-27T06:49:52.579Z,1021.73
2019-02-27T06:50:52.116Z,1021.75
2019-02-27T06:51:52.090Z,1021.81
2019-02-27T06:52:52.065Z,1021.75
2019-02-27T06:53:52.037Z,1021.73
2019-02-27T06:54:52.831Z,1021.71
2019-02-27T06:55:51.985Z,1021.75
2019-02-27T06:56:51.959Z,1021.78
2019-02-27T06:57:51.944Z,1021.76
2019-02-27T06:58:51.909Z,1021.71
2019-02-27T06:59:51.885Z,1021.74
2019-02-27T07:00:51.866Z,1021.75
2019-02-27T07:01:51.828Z,1021.78
2019-02-27T07:02:55.142Z,1021.77
2019-02-27T07:03:51.779Z,1021.77
2019-02-27T07:04:51.748Z,1021.80
2019-02-27T07:05:51.728Z,1021.76
2019-02-27T07:06:55.239Z,1021.74
2019-02-27T07:07:51.672Z,1021.74
2019-02-27T07:08:51.645Z,1021.77
2019-02-27T07:09:51.638Z,1021.76
2019-02-27T07:10:51.595Z,1021.75
2019-02-27T07:11:51.576Z,1021.74
2019-02-27T07:12:54.399Z,1021.70
2019-02-27T07:13:51.518Z,1021.69
2019-02-27T07:14:51.489Z,1021.68
2019-02-27T07:15:51.467Z,1021.68
2019-02-27T07:16:51.440Z,1021.69
2019-02-27T07:17:51.413Z,1021.70
2019-02-27T07:18:51.385Z,1021.70
2019-02-27T07:19:51.369Z,1021.67
2019-02-27T07:20:51.338Z,1021.68
2019-02-27T07:21:51.308Z,1021.66
2019-02-27T07:22:51.286Z,1021.70
2019-02-27T07:23:51.589Z,1021.69
2019-02-27T07:24:51.230Z,1021.71
2019-02-27T07:25:51.210Z,1021.71
2019-02-27T07:26:51.183Z,1021.72
2019-02-27T07:27:51.164Z,1021.70
2019-02-27T07:28:51.128Z,1021.68
2019-02-27T07:29:51.103Z,1021.67
2019-02-27T07:30:51.078Z,1021.64
2019-02-27T07:31:52.095Z,1021.65
2019-02-27T07:32:51.025Z,1021.69
2019-02-27T07:33:50.998Z,1021.65
2019-02-27T07:34:50.973Z,1021.64
2019-02-27T07:35:50.961Z,1021.64
2019-02-27T07:36:50.921Z,1021.67
2019-02-27T07:37:50.899Z,1021.74
2019-02-27T07:38:50.872Z,1021.71
2019-02-27T07:39:50.846Z,1021.72
2019-02-27T07:40:50.823Z,1021.68
2019-02-27T07:41:50.797Z,1021.73
2019-02-27T07:42:50.769Z,1021.73
2019-02-27T07:43:50.770Z,1021.69
2019-02-27T07:44:50.718Z,1021.75
2019-02-27T07:45:50.696Z,1021.67
2019-02-27T07:46:50.673Z,1021.71
2019-02-27T07:47:50.643Z,1021.73
2019-02-27T07:48:50.619Z,1021.69
2019-02-27T07:49:50.592Z,1021.72
2019-02-27T07:50:50.568Z,1021.66
2019-02-27T07:51:50.546Z,1021.67
2019-02-27T07:52:52.113Z,1021.61
2019-02-27T07:53:51.379Z,1021.61
2019-02-27T07:54:50.469Z,1021.61
2019-02-27T07:55:50.489Z,1021.52
2019-02-27T07:56:50.416Z,1021.53
2019-02-27T07:57:50.419Z,1021.54
2019-02-27T07:58:50.421Z,1021.52
2019-02-27T07:59:50.344Z,1021.53
2019-02-27T08:00:50.535Z,1021.58
2019-02-27T08:01:50.295Z,1021.63
2019-02-27T08:02:50.280Z,1021.63
2019-02-27T08:03:50.244Z,1021.64
2019-02-27T08:04:51.704Z,1021.63
2019-02-27T08:05:50.191Z,1021.64
2019-02-27T08:06:50.166Z,1021.62
2019-02-27T08:07:50.142Z,1021.66
2019-02-27T08:08:50.115Z,1021.71
2019-02-27T08:09:50.098Z,1021.71
2019-02-27T08:10:50.068Z,1021.74
2019-02-27T08:11:50.047Z,1021.72
2019-02-27T08:12:50.092Z,1021.76
2019-02-27T08:13:50.015Z,1021.77
2019-02-27T08:14:49.984Z,1021.72
2019-02-27T08:15:49.945Z,1021.73
2019-02-27T08:16:51.632Z,1021.75
2019-02-27T08:17:50.023Z,1021.72
2019-02-27T08:18:49.900Z,1021.67
2019-02-27T08:19:49.847Z,1021.68
2019-02-27T08:20:52.065Z,1021.66
2019-02-27T08:21:49.811Z,1021.68
2019-02-27T08:22:51.635Z,1021.67
2019-02-27T08:23:49.750Z,1021.68
2019-02-27T08:24:49.727Z,1021.65
2019-02-27T08:25:49.713Z,1021.69
2019-02-27T08:26:51.638Z,1021.67
2019-02-27T08:27:49.669Z,1021.68
2019-02-27T08:28:49.626Z,1021.66
2019-02-27T08:29:49.609Z,1021.67
2019-02-27T08:30:49.592Z,1021.63
2019-02-27T08:31:49.565Z,1021.66
2019-02-27T08:32:49.538Z,1021.63
2019-02-27T08:33:49.509Z,1021.56
2019-02-27T08:34:49.484Z,1021.55
2019-02-27T08:35:49.458Z,1021.50
2019-02-27T08:36:49.434Z,1021.50
2019-02-27T08:37:49.412Z,1021.47
2019-02-27T08:38:49.386Z,1021.47
2019-02-27T08:39:49.377Z,1021.45
2019-02-27T08:40:49.339Z,1021.40
2019-02-27T08:41:49.337Z,1021.40
2019-02-27T08:42:49.292Z,1021.35
2019-02-27T08:43:49.275Z,1021.36
2019-02-27T08:44:49.254Z,1021.32
2019-02-27T08:45:49.223Z,1021.30
2019-02-27T08:46:49.195Z,1021.31
2019-02-27T08:47:49.180Z,1021.30
2019-02-27T08:48:50.685Z,1021.32
2019-02-27T08:49:49.125Z,1021.34
2019-02-27T08:50:49.101Z,1021.31
2019-02-27T08:51:49.080Z,1021.35
2019-02-27T08:52:51.423Z,1021.28
2019-02-27T08:53:49.028Z,1021.27
2019-02-27T08:54:49.007Z,1021.29
2019-02-27T08:55:48.983Z,1021.32
2019-02-27T08:56:48.961Z,1021.35
2019-02-27T08:57:49.916Z,1021.35
2019-02-27T08:58:48.919Z,1021.36
2019-02-27T08:59:48.890Z,1021.32
2019-02-27T09:00:48.864Z,1021.30
2019-02-27T09:01:55.437Z,1021.29
2019-02-27T09:02:48.817Z,1021.23
2019-02-27T09:03:48.794Z,1021.25
2019-02-27T09:04:48.771Z,1021.22
2019-02-27T09:05:51.058Z,1021.19
2019-02-27T09:06:48.734Z,1021.21
2019-02-27T09:07:48.701Z,1021.23
2019-02-27T09:08:48.676Z,1021.19
2019-02-27T09:09:51.180Z,1021.15
2019-02-27T09:10:48.630Z,1021.20
2019-02-27T09:11:48.616Z,1021.21
2019-02-27T09:12:49.189Z,1021.21
2019-02-27T09:13:48.574Z,1021.21
2019-02-27T09:14:48.540Z,1021.24
2019-02-27T09:15:48.531Z,1021.23
2019-02-27T09:16:48.503Z,1021.27
2019-02-27T09:17:48.471Z,1021.25
2019-02-27T09:18:48.446Z,1021.25
2019-02-27T09:19:48.422Z,1021.25
2019-02-27T09:20:53.027Z,1021.24
2019-02-27T09:21:48.376Z,1021.26
2019-02-27T09:22:48.380Z,1021.28
2019-02-27T09:23:48.339Z,1021.28
2019-02-27T09:24:48.306Z,1021.24
2019-02-27T09:25:48.962Z,1021.26
2019-02-27T09:26:48.262Z,1021.23
2019-02-27T09:27:48.236Z,1021.19
2019-02-27T09:28:48.213Z,1021.23
2019-02-27T09:29:49.353Z,1021.23
2019-02-27T09:30:48.171Z,1021.24
2019-02-27T09:31:51.020Z,1021.24
2019-02-27T09:32:48.123Z,1021.23
2019-02-27T09:33:48.104Z,1021.14
2019-02-27T09:34:48.085Z,1021.08
2019-02-27T09:35:48.059Z,1021.05
2019-02-27T09:36:49.163Z,1021.03
2019-02-27T09:37:48.434Z,1021.01
2019-02-27T09:38:47.987Z,1021.02
2019-02-27T09:39:47.970Z,1020.97
2019-02-27T09:40:47.942Z,1020.93
2019-02-27T09:41:47.930Z,1020.94
2019-02-27T09:42:50.237Z,1020.89
2019-02-27T09:43:47.931Z,1020.93
2019-02-27T09:44:47.860Z,1020.92
2019-02-27T09:45:47.841Z,1020.94
2019-02-27T09:46:49.873Z,1020.96
2019-02-27T09:47:47.812Z,1020.96
2019-02-27T09:48:47.767Z,1020.95
2019-02-27T09:49:47.744Z,1020.94
2019-02-27T09:50:48.966Z,1020.98
2019-02-27T09:51:47.702Z,1020.96
2019-02-27T09:52:47.677Z,1021.00
2019-02-27T09:53:47.657Z,1020.99
2019-02-27T09:54:47.684Z,1021.01
2019-02-27T09:55:47.614Z,1020.97
2019-02-27T09:56:47.590Z,1020.95
2019-02-27T09:57:47.573Z,1020.97
2019-02-27T09:58:47.550Z,1020.92
2019-02-27T09:59:47.535Z,1020.87
2019-02-27T10:00:47.503Z,1020.94
2019-02-27T10:01:47.481Z,1020.90
2019-02-27T10:02:47.464Z,1020.94
2019-02-27T10:03:47.442Z,1020.96
2019-02-27T10:04:47.417Z,1020.93
2019-02-27T10:05:47.830Z,1020.89
2019-02-27T10:06:47.375Z,1020.86
2019-02-27T10:07:48.432Z,1020.89
2019-02-27T10:08:47.331Z,1020.89
2019-02-27T10:09:51.165Z,1020.90
2019-02-27T10:10:47.309Z,1020.85
2019-02-27T10:11:47.277Z,1020.83
2019-02-27T10:12:47.321Z,1020.78
2019-02-27T10:13:47.307Z,1020.78
2019-02-27T10:14:47.900Z,1020.74
2019-02-27T10:15:47.183Z,1020.74
2019-02-27T10:16:47.206Z,1020.74
2019-02-27T10:17:47.148Z,1020.73
2019-02-27T10:18:47.123Z,1020.75
2019-02-27T10:19:47.100Z,1020.73
2019-02-27T10:20:47.082Z,1020.77
2019-02-27T10:21:47.634Z,1020.77
2019-02-27T10:22:47.040Z,1020.75
2019-02-27T10:23:47.018Z,1020.75
2019-02-27T10:24:46.997Z,1020.75
2019-02-27T10:25:46.975Z,1020.76
2019-02-27T10:26:46.954Z,1020.73
2019-02-27T10:27:47.388Z,1020.72
2019-02-27T10:28:46.912Z,1020.76
2019-02-27T10:29:47.917Z,1020.76
2019-02-27T10:30:49.721Z,1020.77
2019-02-27T10:31:46.856Z,1020.76
2019-02-27T10:32:46.852Z,1020.73
2019-02-27T10:33:46.818Z,1020.71
2019-02-27T10:34:46.790Z,1020.75
2019-02-27T10:35:46.775Z,1020.68
2019-02-27T10:36:48.732Z,1020.64
2019-02-27T10:37:50.428Z,1020.62
2019-02-27T10:38:46.709Z,1020.60
2019-02-27T10:39:46.696Z,1020.66
2019-02-27T10:40:46.811Z,1020.64
2019-02-27T10:41:49.820Z,1020.62
2019-02-27T10:42:46.633Z,1020.52
2019-02-27T10:43:47.348Z,1020.61
2019-02-27T10:44:46.595Z,1020.57
2019-02-27T10:45:49.325Z,1020.57
2019-02-27T10:46:46.550Z,1020.50
2019-02-27T10:47:46.527Z,1020.44
2019-02-27T10:48:47.539Z,1020.45
2019-02-27T10:49:48.199Z,1020.40
2019-02-27T10:50:46.486Z,1020.40
2019-02-27T10:51:46.453Z,1020.41
2019-02-27T10:52:46.431Z,1020.33
2019-02-27T10:53:46.410Z,1020.31
2019-02-27T10:54:46.391Z,1020.32
2019-02-27T10:55:48.932Z,1020.28
2019-02-27T10:56:46.352Z,1020.28
2019-02-27T10:57:46.339Z,1020.29
2019-02-27T10:58:47.667Z,1020.28
2019-02-27T10:59:46.293Z,1020.24
2019-02-27T11:00:46.423Z,1020.24
2019-02-27T11:01:46.253Z,1020.23
2019-02-27T11:02:47.944Z,1020.29
2019-02-27T11:03:46.215Z,1020.26
2019-02-27T11:04:46.197Z,1020.24
2019-02-27T11:05:46.178Z,1020.25
2019-02-27T11:06:46.161Z,1020.19
2019-02-27T11:07:46.630Z,1020.21
2019-02-27T11:08:46.120Z,1020.23
2019-02-27T11:09:46.108Z,1020.24
2019-02-27T11:10:46.086Z,1020.26
2019-02-27T11:11:46.068Z,1020.22
2019-02-27T11:12:46.047Z,1020.15
2019-02-27T11:13:48.418Z,1020.12
2019-02-27T11:14:46.014Z,1020.09
2019-02-27T11:15:46.000Z,1020.07
2019-02-27T11:16:45.977Z,1020.06
2019-02-27T11:17:45.979Z,1020.08
2019-02-27T11:18:45.964Z,1020.02
2019-02-27T11:19:45.983Z,1020.05
2019-02-27T11:20:45.933Z,1020.03
2019-02-27T11:21:45.896Z,1020.05
2019-02-27T11:22:45.996Z,1020.04
2019-02-27T11:23:45.928Z,1019.99
2019-02-27T11:24:49.174Z,1019.95
2019-02-27T11:25:45.828Z,1019.93
2019-02-27T11:26:45.814Z,1020.00
2019-02-27T11:27:45.801Z,1019.90
2019-02-27T11:28:47.745Z,1019.89
2019-02-27T11:29:45.769Z,1019.86
2019-02-27T11:30:45.751Z,1019.87
2019-02-27T11:31:46.134Z,1019.80
2019-02-27T11:32:45.719Z,1019.79
2019-02-27T11:33:45.704Z,1019.80
2019-02-27T11:34:48.455Z,1019.80
2019-02-27T11:35:45.991Z,1019.74
2019-02-27T11:36:45.659Z,1019.71
2019-02-27T11:37:47.493Z,1019.66
2019-02-27T11:38:45.634Z,1019.64
2019-02-27T11:39:45.616Z,1019.63
2019-02-27T11:40:45.600Z,1019.65
2019-02-27T11:41:46.079Z,1019.60
2019-02-27T11:42:47.206Z,1019.57
2019-02-27T11:43:45.558Z,1019.59
2019-02-27T11:44:49.453Z,1019.56
2019-02-27T11:45:45.530Z,1019.54
2019-02-27T11:46:45.518Z,1019.55
2019-02-27T11:47:48.018Z,1019.50
2019-02-27T11:48:45.496Z,1019.54
2019-02-27T11:49:45.476Z,1019.53
2019-02-27T11:50:45.466Z,1019.53
2019-02-27T11:51:45.450Z,1019.54
2019-02-27T11:52:48.813Z,1019.52
2019-02-27T11:53:45.430Z,1019.48
2019-02-27T11:54:45.416Z,1019.50
2019-02-27T11:55:47.127Z,1019.45
2019-02-27T11:56:45.387Z,1019.44
2019-02-27T11:57:45.374Z,1019.37
2019-02-27T11:58:45.364Z,1019.33
2019-02-27T11:59:47.514Z,1019.29
2019-02-27T12:00:47.203Z,1019.29
2019-02-27T12:01:45.351Z,1019.27
2019-02-27T12:02:45.319Z,1019.24
2019-02-27T12:03:46.029Z,1019.26
2019-02-27T12:04:45.290Z,1019.28